Time;durP1;ratioP1;P1;durP2;ratioP2;P2;SDS_P1;SDS_P2;PMS_P1;PMS_P2;Temp;Humidity;BMP_temperature;BMP_pressure;BME280_temperature;BME280_humidity;BME280_pressure;Samples;Min_cycle;Max_cycle;Signal;HPM_P1;HPM_P2
2021/01/06 00:01:05;;;;;;;6.13;2.53;;;;;;;0.40;100.00;100279.64;1727828;83;21098;-67
2021/01/06 00:03:32;;;;;;;4.27;1.93;;;;;;;0.40;100.00;100273.48;1728229;83;20953;-66
2021/01/06 00:06:06;;;;;;;2.63;1.80;;;;;;;0.41;100.00;100279.16;1727818;83;21055;-66
2021/01/06 00:08:46;;;;;;;1.70;1.60;;;;;;;0.44;100.00;100259.85;1845008;76;26682;-66
2021/01/06 00:11:17;;;;;;;3.10;2.10;;;;;;;0.38;100.00;100257.13;1828547;77;20961;-66
2021/01/06 00:13:47;;;;;;;7.20;2.87;;;;;;;0.37;100.00;100250.12;1860816;76;21300;-66
2021/01/06 00:16:16;;;;;;;2.00;1.83;;;;;;;0.36;100.00;100260.36;1860701;76;21029;-66
2021/01/06 00:18:46;;;;;;;3.80;2.00;;;;;;;0.36;100.00;100273.67;1860732;77;20985;-66
2021/01/06 00:21:14;;;;;;;5.40;2.20;;;;;;;0.36;100.00;100278.98;1860758;77;20978;-67
2021/01/06 00:23:42;;;;;;;1.83;1.73;;;;;;;0.37;100.00;100270.06;1860746;77;21021;-67
2021/01/06 00:26:09;;;;;;;2.17;1.93;;;;;;;0.39;100.00;100287.27;1860871;77;21195;-67
2021/01/06 00:28:37;;;;;;;3.43;2.20;;;;;;;0.40;100.00;100292.09;1860723;76;20965;-67
2021/01/06 00:31:06;;;;;;;8.07;3.20;;;;;;;0.40;100.00;100294.27;1860797;76;20970;-67
2021/01/06 00:33:35;;;;;;;3.17;2.53;;;;;;;0.42;100.00;100280.39;1860682;77;20962;-67
2021/01/06 00:36:11;;;;;;;3.93;1.57;;;;;;;0.41;100.00;100285.80;1860739;76;21016;-67
2021/01/06 00:38:39;;;;;;;1.53;1.43;;;;;;;0.40;100.00;100276.14;1762432;81;21267;-66
2021/01/06 00:41:07;;;;;;;3.27;2.17;;;;;;;0.39;100.00;100277.95;1762214;81;21207;-66
2021/01/06 00:43:35;;;;;;;3.30;1.97;;;;;;;0.39;100.00;100277.95;1762312;81;21012;-66
2021/01/06 00:46:03;;;;;;;6.83;3.83;;;;;;;0.41;100.00;100277.83;1741708;81;21032;-65
2021/01/06 00:48:32;;;;;;;4.20;3.10;;;;;;;0.39;100.00;100275.30;1720321;82;20981;-66
2021/01/06 00:51:00;;;;;;;3.07;2.63;;;;;;;0.40;100.00;100270.81;1720406;83;21217;-66
2021/01/06 00:53:28;;;;;;;4.93;1.97;;;;;;;0.38;100.00;100269.09;1720347;82;21104;-66
2021/01/06 00:56:00;;;;;;;3.58;1.95;;;;;;;0.37;100.00;100268.73;1716719;83;20993;-65
2021/01/06 00:58:29;;;;;;;2.97;2.43;;;;;;;0.37;100.00;100273.18;1724123;82;21000;-66
2021/01/06 01:00:57;;;;;;;3.60;2.40;;;;;;;0.37;100.00;100278.05;1732113;82;21032;-66
2021/01/06 01:03:26;;;;;;;6.67;2.13;;;;;;;0.37;100.00;100297.13;1728160;82;21726;-67
2021/01/06 01:05:57;;;;;;;4.57;2.57;;;;;;;0.36;100.00;100289.62;1732004;82;21620;-67
2021/01/06 01:08:25;;;;;;;2.40;1.93;;;;;;;0.36;100.00;100285.64;1723738;82;21016;-66
2021/01/06 01:10:53;;;;;;;2.00;1.83;;;;;;;0.37;100.00;100277.17;1721129;83;21111;-65
2021/01/06 01:13:24;;;;;;;3.07;2.50;;;;;;;0.40;100.00;100280.13;1719976;83;20969;-66
2021/01/06 01:15:55;;;;;;;4.30;2.23;;;;;;;0.40;100.00;100278.31;1759789;79;21414;-66
2021/01/06 01:18:25;;;;;;;2.07;1.53;;;;;;;0.42;100.00;100268.91;1733640;82;21005;-66
2021/01/06 01:20:56;;;;;;;4.97;2.17;;;;;;;0.40;100.00;100258.36;1775577;80;21013;-67
2021/01/06 01:23:26;;;;;;;5.00;2.23;;;;;;;0.40;100.00;100257.52;1765803;81;21027;-66
2021/01/06 01:25:55;;;;;;;3.07;1.97;;;;;;;0.40;100.00;100268.16;1777300;80;20986;-66
2021/01/06 01:28:23;;;;;;;0.90;0.90;;;;;;;0.38;100.00;100273.09;1765780;81;21386;-66
2021/01/06 01:30:51;;;;;;;2.57;1.57;;;;;;;0.41;100.00;100276.04;1797204;79;21980;-66
2021/01/06 01:33:21;;;;;;;6.77;2.70;;;;;;;0.40;100.00;100272.98;1765889;81;20945;-66
2021/01/06 01:35:48;;;;;;;5.07;2.73;;;;;;;0.40;100.00;100272.98;1777223;80;20962;-66
2021/01/06 01:38:21;;;;;;;2.73;2.53;;;;;;;0.40;100.00;100273.48;1765802;81;21063;-66
2021/01/06 01:41:07;;;;;;;2.12;1.95;;;;;;;0.38;100.00;100281.06;1777329;80;21467;-67
2021/01/06 01:43:36;;;;;;;3.00;2.00;;;;;;;0.37;100.00;100278.50;1765702;81;21007;-66
2021/01/06 01:46:09;;;;;;;3.20;1.93;;;;;;;0.36;100.00;100278.14;1766282;79;21032;-66
2021/01/06 01:48:44;;;;;;;3.13;1.80;;;;;;;0.36;100.00;100280.31;1730992;82;21593;-66
2021/01/06 01:51:39;;;;;;;3.27;2.30;;;;;;;0.38;100.00;100285.06;1702141;84;21040;-66
2021/01/06 01:54:10;;;;;;;3.17;2.30;;;;;;;0.40;100.00;100282.79;1699744;81;21217;-65
2021/01/06 01:57:00;;;;;;;3.20;1.93;;;;;;;0.39;100.00;100279.28;1697033;83;21107;-66
2021/01/06 01:59:48;;;;;;;3.27;2.37;;;;;;;0.38;100.00;100279.73;1696757;84;21064;-67
2021/01/06 02:02:44;;;;;;;2.27;1.93;;;;;;;0.41;100.00;100273.38;1889978;76;26168;-65
2021/01/06 02:05:19;;;;;;;1.70;1.57;;;;;;;0.35;100.00;100270.65;1860830;77;20975;-66
2021/01/06 02:08:15;;;;;;;4.30;2.27;;;;;;;0.34;100.00;100268.92;1792152;80;21339;-66
2021/01/06 02:11:07;;;;;;;3.60;2.10;;;;;;;0.33;100.00;100270.36;1583856;90;21656;-66
2021/01/06 02:13:53;;;;;;;3.67;2.30;;;;;;;0.37;100.00;100271.40;1851919;76;24829;-66
2021/01/06 02:16:41;;;;;;;2.83;1.93;;;;;;;0.33;100.00;100273.86;1854755;77;21056;-66
2021/01/06 02:19:13;;;;;;;3.40;2.27;;;;;;;0.33;100.00;100266.36;1855181;77;21139;-66
2021/01/06 02:21:41;;;;;;;4.13;2.47;;;;;;;0.32;100.00;100265.52;1734847;82;20966;-65
2021/01/06 02:24:09;;;;;;;2.83;1.93;;;;;;;0.32;100.00;100265.52;1734975;82;21046;-66
2021/01/06 02:26:37;;;;;;;3.10;2.13;;;;;;;0.31;100.00;100266.95;1734938;82;20998;-67
2021/01/06 02:29:05;;;;;;;1.50;1.37;;;;;;;0.29;100.00;100271.03;1734914;82;21057;-66
2021/01/06 02:31:32;;;;;;;2.67;1.90;;;;;;;0.30;100.00;100266.10;1734953;82;21502;-66
2021/01/06 02:34:01;;;;;;;1.80;1.70;;;;;;;0.31;100.00;100266.95;1734975;82;20930;-66
2021/01/06 02:36:28;;;;;;;3.13;2.07;;;;;;;0.32;100.00;100267.30;1734955;82;21034;-66
2021/01/06 02:38:57;;;;;;;2.90;1.97;;;;;;;0.32;100.00;100265.52;1710626;82;20965;-65
2021/01/06 02:41:25;;;;;;;4.80;2.83;;;;;;;0.34;100.00;100262.77;1735041;82;21392;-66
2021/01/06 02:43:53;;;;;;;3.53;2.40;;;;;;;0.33;100.00;100265.03;1734981;82;21403;-65
2021/01/06 02:46:21;;;;;;;2.70;2.27;;;;;;;0.32;100.00;100256.66;1735018;82;20958;-66
2021/01/06 02:48:49;;;;;;;2.03;1.83;;;;;;;0.32;100.00;100252.22;1734782;82;21032;-66
2021/01/06 02:51:26;;;;;;;1.97;1.77;;;;;;;0.33;100.00;100261.89;1734959;82;20962;-65
2021/01/06 02:54:04;;;;;;;2.97;2.07;;;;;;;0.37;100.00;100259.42;1890043;76;25692;-66
2021/01/06 02:56:31;;;;;;;5.47;3.10;;;;;;;0.36;100.00;100272.34;1855699;77;20954;-66
2021/01/06 02:59:02;;;;;;;4.17;2.40;;;;;;;0.34;100.00;100267.59;1820648;77;21213;-65
2021/01/06 03:01:33;;;;;;;4.13;2.80;;;;;;;0.35;100.00;100267.98;1860753;77;21014;-65
2021/01/06 03:04:01;;;;;;;2.97;2.17;;;;;;;0.37;100.00;100269.19;1821706;77;20991;-66
2021/01/06 03:06:55;;;;;;;1.17;1.17;;;;;;;0.37;100.00;100268.73;1860806;77;20959;-65
2021/01/06 03:09:33;;;;;;;2.87;1.93;;;;;;;0.38;100.00;100272.24;1861132;77;21025;-65
2021/01/06 03:12:14;;;;;;;5.23;2.47;;;;;;;0.40;100.00;100270.33;1860730;77;21366;-65
2021/01/06 03:14:42;;;;;;;8.90;3.30;;;;;;;0.42;100.00;100264.91;1860890;77;21040;-66
2021/01/06 03:17:13;;;;;;;3.60;2.43;;;;;;;0.41;100.00;100261.41;1860792;77;20989;-66
2021/01/06 03:19:45;;;;;;;2.33;1.87;;;;;;;0.43;100.00;100266.14;1860887;77;20906;-66
2021/01/06 03:22:15;;;;;;;2.67;1.77;;;;;;;0.44;100.00;100267.84;1860923;77;21435;-67
2021/01/06 03:24:53;;;;;;;5.37;2.57;;;;;;;0.45;100.00;100265.56;1860713;77;23524;-66
2021/01/06 03:27:22;;;;;;;2.63;2.00;;;;;;;0.47;100.00;100258.81;1867185;76;21040;-66
2021/01/06 03:29:50;;;;;;;5.00;2.10;;;;;;;0.49;100.00;100259.56;1860840;77;21005;-65
2021/01/06 03:32:32;;;;;;;7.23;2.97;;;;;;;0.50;100.00;100260.80;1839769;77;20965;-66
2021/01/06 03:35:32;;;;;;;4.58;2.83;;;;;;;0.52;100.00;100288.15;1763511;81;20957;-66
2021/01/06 03:38:17;;;;;;;2.23;2.03;;;;;;;0.52;100.00;100288.15;1763460;81;21207;-65
2021/01/06 03:40:48;;;;;;;2.20;1.97;;;;;;;0.53;100.00;100279.68;1763336;81;21024;-66
2021/01/06 03:43:16;;;;;;;4.43;2.43;;;;;;;0.55;100.00;100279.97;1763459;81;21092;-66
2021/01/06 03:45:48;;;;;;;1.63;1.53;;;;;;;0.55;100.00;100279.13;1764028;81;20991;-66
2021/01/06 03:48:37;;;;;;;2.55;2.22;;;;;;;0.54;100.00;100278.74;1708466;82;21020;-66
2021/01/06 03:51:19;;;;;;;5.37;2.77;;;;;;;0.55;100.00;100283.12;1757957;81;21199;-65
2021/01/06 03:53:54;;;;;;;2.53;1.87;;;;;;;0.60;100.00;100280.98;1889816;76;26359;-65
2021/01/06 03:56:26;;;;;;;8.50;4.13;;;;;;;0.58;100.00;100296.69;1855616;77;21045;-66
2021/01/06 03:59:10;;;;;;;6.60;3.30;;;;;;;0.60;100.00;100292.11;1826361;78;22707;-66
2021/01/06 04:01:44;;;;;;;1.63;1.30;;;;;;;0.62;100.00;100283.09;1828811;78;20988;-65
2021/01/06 04:04:30;;;;;;;2.20;2.00;;;;;;;0.63;100.00;100291.92;1823209;78;20906;-66
2021/01/06 04:06:59;;;;;;;2.57;1.73;;;;;;;0.62;100.00;100289.75;1802569;78;20972;-66
2021/01/06 04:09:51;;;;;;;2.57;1.67;;;;;;;0.63;100.00;100295.91;1826543;78;21004;-66
2021/01/06 04:12:25;;;;;;;2.23;1.87;;;;;;;0.67;100.00;100296.92;1890014;76;25201;-66
2021/01/06 04:14:53;;;;;;;3.10;2.00;;;;;;;0.64;100.00;100291.83;1860719;77;20955;-65
2021/01/06 04:17:31;;;;;;;5.07;2.63;;;;;;;0.64;100.00;100295.81;1860855;77;21342;-66
2021/01/06 04:20:24;;;;;;;3.50;2.77;;;;;;;0.62;100.00;100298.19;1860230;77;20974;-65
2021/01/06 04:22:54;;;;;;;3.33;2.47;;;;;;;0.61;100.00;100300.00;1860818;77;21030;-66
2021/01/06 04:25:27;;;;;;;4.37;2.63;;;;;;;0.59;100.00;100304.58;1860741;77;21002;-66
2021/01/06 04:28:03;;;;;;;1.17;1.03;;;;;;;0.61;100.00;100306.66;1860909;77;21603;-67
2021/01/06 04:30:38;;;;;;;2.77;1.53;;;;;;;0.62;100.00;100297.73;1792198;80;21602;-67
2021/01/06 04:33:11;;;;;;;5.03;2.43;;;;;;;0.63;100.00;100298.09;1792328;80;20969;-66
2021/01/06 04:35:47;;;;;;;3.67;2.80;;;;;;;0.71;100.00;100304.26;1845212;76;26276;-66
2021/01/06 04:38:25;;;;;;;2.87;2.47;;;;;;;0.67;100.00;100306.23;1810560;78;20992;-65
2021/01/06 04:41:31;;;;;;;4.27;2.40;;;;;;;0.74;100.00;100303.58;1889936;76;26048;-66
2021/01/06 04:44:39;;;;;;;4.67;2.47;;;;;;;0.69;100.00;100306.14;1809474;78;21552;-66
2021/01/06 04:47:55;;;;;;;2.20;1.63;;;;;;;0.68;100.00;100313.77;1809575;76;21936;-65
2021/01/06 04:50:53;;;;;;;4.03;1.90;;;;;;;0.66;100.00;100316.52;1809446;79;21167;-66
2021/01/06 04:53:36;;;;;;;2.77;1.87;;;;;;;0.66;100.00;100322.33;1809692;79;20904;-66
2021/01/06 04:56:24;;;;;;;3.95;2.40;;;;;;;0.67;100.00;100314.70;1809704;79;21551;-65
2021/01/06 04:59:06;;;;;;;6.33;3.33;;;;;;;0.69;100.00;100319.45;1805568;79;21153;-66
2021/01/06 05:02:32;;;;;;;6.62;3.20;;;;;;;0.70;100.00;100314.52;1809010;79;21354;-66
2021/01/06 05:05:41;;;;;;;7.37;2.97;;;;;;;0.70;100.00;100321.17;1809419;79;20947;-66
2021/01/06 05:08:17;;;;;;;2.37;2.17;;;;;;;0.66;100.00;100319.19;1806431;79;21170;-66
2021/01/06 05:11:02;;;;;;;5.87;3.00;;;;;;;0.67;100.00;100330.67;1811906;78;21006;-66
2021/01/06 05:13:54;;;;;;;2.87;2.17;;;;;;;0.68;100.00;100334.57;1889875;76;26865;-65
2021/01/06 05:16:36;;;;;;;3.20;1.70;;;;;;;0.63;100.00;100338.49;1860773;77;20998;-66
2021/01/06 05:19:07;;;;;;;2.77;2.37;;;;;;;0.63;100.00;100335.34;1858880;77;22139;-66
2021/01/06 05:21:34;;;;;;;7.00;3.23;;;;;;;0.63;100.00;100335.83;1868110;76;21561;-65
2021/01/06 05:24:18;;;;;;;6.43;3.30;;;;;;;0.64;100.00;100327.75;1812458;76;20948;-66
2021/01/06 05:27:15;;;;;;;12.10;3.25;;;;;;;0.63;100.00;100330.51;1860641;76;21621;-66
2021/01/06 05:29:52;;;;;;;3.97;2.87;;;;;;;0.62;100.00;100326.13;1768405;81;20920;-67
2021/01/06 05:32:34;;;;;;;6.57;2.97;;;;;;;0.60;100.00;100320.91;1764600;80;22341;-66
2021/01/06 05:35:22;;;;;;;3.20;2.03;;;;;;;0.58;100.00;100328.14;1768298;81;21023;-67
2021/01/06 05:37:57;;;;;;;3.73;2.23;;;;;;;0.59;100.00;100327.69;1743206;81;21011;-67
2021/01/06 05:40:25;;;;;;;3.10;1.90;;;;;;;0.60;100.00;100340.02;1768151;81;20984;-66
2021/01/06 05:43:04;;;;;;;4.33;2.87;;;;;;;0.60;100.00;100338.20;1768447;81;21493;-67
2021/01/06 05:45:53;;;;;;;5.40;3.10;;;;;;;0.61;100.00;100339.08;1761995;81;22196;-66
2021/01/06 05:48:25;;;;;;;10.43;4.03;;;;;;;0.61;100.00;100346.58;1721322;82;20970;-66
2021/01/06 05:51:19;;;;;;;8.80;3.17;;;;;;;0.61;100.00;100352.37;1741942;82;21080;-66
2021/01/06 05:54:16;;;;;;;5.30;2.47;;;;;;;0.60;100.00;100348.84;1745236;82;20914;-66
2021/01/06 05:57:30;;;;;;;9.80;4.50;;;;;;;0.64;100.00;100348.17;1845303;76;26714;-65
2021/01/06 06:00:10;;;;;;;4.87;2.67;;;;;;;0.60;100.00;100363.97;1815342;78;20960;-66
2021/01/06 06:02:49;;;;;;;3.07;2.33;;;;;;;0.56;100.00;100357.98;1767488;81;21355;-70
2021/01/06 06:06:20;;;;;;;4.10;3.00;;;;;;;0.63;100.00;100362.45;1889812;76;26840;-70
2021/01/06 06:09:02;;;;;;;4.58;3.05;;;;;;;0.61;100.00;100357.22;1815622;79;20981;-71
2021/01/06 06:11:58;;;;;;;;;;;;;;;0.66;100.00;100363.59;1836962;77;20906;-73
2021/01/06 06:15:10;;;;;;;5.80;3.52;;;;;;;0.66;100.00;100353.78;1861585;77;20104;-67
2021/01/06 06:17:46;;;;;;;4.30;2.67;;;;;;;0.68;100.00;100360.34;1861231;77;21534;-72
2021/01/06 06:20:35;;;;;;;4.17;2.47;;;;;;;0.69;100.00;100354.92;1861410;76;21580;-70
2021/01/06 06:23:20;;;;;;;5.50;3.03;;;;;;;0.72;100.00;100361.84;1858400;77;20977;-71
2021/01/06 06:26:17;;;;;;;4.70;3.00;;;;;;;0.72;100.00;100360.02;1861114;77;21357;-67
2021/01/06 06:29:22;;;;;;;7.97;2.60;;;;;;;0.76;100.00;100368.66;1815040;79;20949;-67
2021/01/06 06:31:53;;;;;;;6.50;2.67;;;;;;;0.77;100.00;100378.37;1815138;79;20994;-67
2021/01/06 06:34:33;;;;;;;5.03;3.50;;;;;;;0.79;100.00;100383.59;1767217;81;21000;-66
2021/01/06 06:37:09;;;;;;;5.63;3.33;;;;;;;0.81;100.00;100377.20;1733251;82;21539;-67
2021/01/06 06:39:47;;;;;;;9.87;4.77;;;;;;;0.84;100.00;100379.67;1733340;82;21303;-65
2021/01/06 06:42:50;;;;;;;9.30;4.43;;;;;;;0.87;100.00;100375.48;1733314;82;21104;-66
2021/01/06 06:45:45;;;;;;;8.83;3.97;;;;;;;0.91;100.00;100380.98;1737442;81;21012;-67
2021/01/06 06:48:36;;;;;;;13.30;6.20;;;;;;;0.95;100.00;100381.14;1790675;80;20947;-65
2021/01/06 06:51:21;;;;;;;10.40;4.90;;;;;;;1.01;100.00;100387.02;1790849;80;21571;-66
2021/01/06 06:54:35;;;;;;;8.47;5.20;;;;;;;1.09;100.00;100383.39;1845190;76;26590;-67
2021/01/06 06:57:15;;;;;;;8.67;4.90;;;;;;;1.06;100.00;100393.78;1815319;78;20901;-67
2021/01/06 07:00:23;;;;;;;7.47;3.87;;;;;;;1.09;100.00;100392.22;1812720;79;21204;-67
2021/01/06 07:03:05;;;;;;;10.00;5.10;;;;;;;1.08;100.00;100389.20;1741774;81;21074;-67
2021/01/06 07:05:56;;;;;;;16.97;7.33;;;;;;;1.11;100.00;100395.63;1680674;82;21818;-69
2021/01/06 07:08:52;;;;;;;5.33;3.13;;;;;;;1.19;100.00;100386.27;1842150;76;27206;-69
2021/01/06 07:11:45;;;;;;;7.37;3.87;;;;;;;1.21;100.00;100382.57;1868428;75;26164;-68
2021/01/06 07:14:33;;;;;;;9.63;5.23;;;;;;;1.19;100.00;100388.48;1790632;80;21051;-71
2021/01/06 07:17:13;;;;;;;5.87;3.30;;;;;;;1.23;100.00;100384.64;1811235;79;21290;-68
2021/01/06 07:19:56;;;;;;;8.57;4.13;;;;;;;1.27;100.00;100385.30;1811352;79;21037;-67
2021/01/06 07:22:38;;;;;;;16.27;7.73;;;;;;;1.30;100.00;100387.77;1790496;80;21020;-69
2021/01/06 07:25:22;;;;;;;7.33;3.93;;;;;;;1.37;100.00;100389.05;1805177;79;20934;-68
2021/01/06 07:28:00;;;;;;;8.00;3.95;;;;;;;1.43;100.00;100392.63;1790592;79;21020;-68
2021/01/06 07:30:43;;;;;;;6.43;3.90;;;;;;;1.47;100.00;100394.59;1721530;82;21376;-68
2021/01/06 07:33:36;;;;;;;10.13;4.97;;;;;;;1.54;100.00;100399.04;1704593;84;21099;-70
2021/01/06 07:36:17;;;;;;;5.50;3.17;;;;;;;1.57;100.00;100403.69;1699582;84;21109;-68
2021/01/06 07:38:46;;;;;;;7.93;4.60;;;;;;;1.62;100.00;100391.39;1701707;84;20978;-69
2021/01/06 07:41:15;;;;;;;5.17;3.13;;;;;;;1.68;100.00;100394.95;1704627;84;21008;-69
2021/01/06 07:44:06;;;;;;;9.20;3.93;;;;;;;1.69;100.00;100398.84;1705608;84;21397;-69
2021/01/06 07:47:05;;;;;;;12.47;5.73;;;;;;;1.78;100.00;100404.03;1843415;76;26987;-67
2021/01/06 07:49:50;;;;;;;8.10;3.63;;;;;;;1.77;100.00;100410.80;1822640;77;21068;-68
2021/01/06 07:52:41;;;;;;;6.50;3.53;;;;;;;1.74;100.00;100400.36;1840084;77;21147;-70
2021/01/06 07:55:35;;;;;;;15.07;6.27;;;;;;;1.74;100.00;100402.54;1820412;78;20937;-70
2021/01/06 07:58:14;;;;;;;8.03;3.83;;;;;;;1.76;100.00;100407.28;1821507;78;21567;-68
2021/01/06 08:00:53;;;;;;;6.33;3.20;;;;;;;1.79;100.00;100400.88;1821166;78;21537;-70
2021/01/06 08:03:28;;;;;;;7.27;3.97;;;;;;;1.82;100.00;100404.67;1794800;77;20977;-69
2021/01/06 08:05:59;;;;;;;6.43;3.70;;;;;;;1.86;100.00;100404.36;1823119;77;21620;-68
2021/01/06 08:08:29;;;;;;;8.17;3.20;;;;;;;1.88;100.00;100411.77;1853654;77;21076;-69
2021/01/06 08:11:06;;;;;;;8.07;4.43;;;;;;;1.93;100.00;100405.25;1849484;77;21052;-68
2021/01/06 08:13:39;;;;;;;10.83;4.40;;;;;;;1.94;100.00;100406.98;1730102;81;21025;-67
2021/01/06 08:16:18;;;;;;;7.67;3.30;;;;;;;2.02;100.00;100408.61;1845201;76;26731;-68
2021/01/06 08:19:24;;;;;;;5.40;3.22;;;;;;;2.02;100.00;100408.61;1815093;79;21012;-68
2021/01/06 08:22:21;;;;;;;10.60;3.87;;;;;;;2.04;100.00;100408.05;1815237;79;21361;-70
2021/01/06 08:25:07;;;;;;;7.57;3.67;;;;;;;2.08;100.00;100418.38;1815025;79;20996;-69
2021/01/06 08:27:38;;;;;;;6.80;2.87;;;;;;;2.08;100.00;100409.53;1814845;79;21048;-69
2021/01/06 08:30:25;;;;;;;7.27;4.00;;;;;;;2.07;100.00;100411.81;1747110;82;20942;-70
2021/01/06 08:33:09;;;;;;;8.53;4.33;;;;;;;2.06;100.00;100406.97;1776934;80;20978;-68
2021/01/06 08:35:41;;;;;;;8.83;4.27;;;;;;;2.10;100.00;100403.60;1767604;81;22345;-68
2021/01/06 08:38:33;;;;;;;5.50;2.97;;;;;;;2.12;100.00;100399.00;1728086;81;21151;-67
2021/01/06 08:41:20;;;;;;;8.97;3.93;;;;;;;2.18;100.00;100399.92;1760517;81;21068;-67
2021/01/06 08:43:53;;;;;;;8.77;5.27;;;;;;;2.25;100.00;100400.35;1757256;81;20993;-72
2021/01/06 08:46:28;;;;;;;6.87;3.87;;;;;;;2.32;100.00;100392.28;1757636;81;21637;-73
2021/01/06 08:49:19;;;;;;;12.70;5.83;;;;;;;2.41;100.00;100398.78;1741458;82;21272;-68
2021/01/06 08:51:47;;;;;;;17.73;7.20;;;;;;;2.47;100.00;100401.84;1766570;81;21013;-65
2021/01/06 08:54:18;;;;;;;29.87;14.13;;;;;;;2.51;100.00;100405.13;1745820;82;21101;-67
2021/01/06 08:56:46;;;;;;;14.37;6.53;;;;;;;2.53;100.00;100404.53;1707950;82;21198;-65
2021/01/06 08:59:26;;;;;;;8.90;4.43;;;;;;;2.54;100.00;100410.75;1686415;83;21160;-66
2021/01/06 09:01:58;;;;;;;9.13;3.87;;;;;;;2.57;100.00;100407.88;1650384;85;21433;-65
2021/01/06 09:04:41;;;;;;;8.37;3.93;;;;;;;2.66;100.00;100403.20;1879704;75;26801;-68
2021/01/06 09:07:25;;;;;;;12.80;6.23;;;;;;;2.67;100.00;100418.23;1860744;77;20972;-66
2021/01/06 09:10:13;;;;;;;16.03;7.23;;;;;;;2.71;100.00;100415.73;1853220;77;21384;-68
2021/01/06 09:12:59;;;;;;;8.37;4.80;;;;;;;2.75;100.00;100407.86;1781104;78;20917;-68
2021/01/06 09:15:38;;;;;;;9.90;5.13;;;;;;;2.79;100.00;100404.48;1826233;78;21625;-68
2021/01/06 09:18:27;;;;;;;9.77;5.33;;;;;;;2.85;100.00;100404.89;1763358;78;20984;-70
2021/01/06 09:21:13;;;;;;;12.30;5.93;;;;;;;2.97;100.00;100399.11;1835931;77;26658;-69
2021/01/06 09:23:42;;;;;;;13.63;5.77;;;;;;;3.02;100.00;100410.31;1786655;80;20924;-69
2021/01/06 09:26:14;;;;;;;13.93;6.40;;;;;;;3.09;100.00;100407.20;1744878;80;21387;-70
2021/01/06 09:28:41;;;;;;;16.33;6.63;;;;;;;3.15;100.00;100409.40;1770251;80;21012;-69
2021/01/06 09:31:10;;;;;;;13.83;6.33;;;;;;;3.16;100.00;100410.63;1778939;78;21314;-68
2021/01/06 09:33:39;;;;;;;18.63;6.37;;;;;;;3.17;100.00;100404.33;1751358;80;21563;-69
2021/01/06 09:36:07;;;;;;;13.57;5.03;;;;;;;3.20;100.00;100400.06;1804746;78;21016;-69
2021/01/06 09:38:46;;;;;;;18.57;7.00;;;;;;;3.25;100.00;100406.41;1830323;78;22261;-71
2021/01/06 09:41:19;;;;;;;15.67;7.33;;;;;;;3.30;100.00;100404.25;1830423;78;21084;-71
2021/01/06 09:44:03;;;;;;;18.25;7.72;;;;;;;3.32;100.00;100396.97;1759831;80;20990;-71
2021/01/06 09:47:05;;;;;;;8.77;5.10;;;;;;;3.34;100.00;100407.55;1750324;80;21148;-67
2021/01/06 09:49:37;;;;;;;9.90;4.00;;;;;;;3.35;100.00;100408.77;1753916;80;21039;-68
2021/01/06 09:52:38;;;;;;;12.77;5.17;;;;;;;3.41;100.00;100402.95;1754992;81;21375;-71
2021/01/06 09:55:09;;;;;;;13.00;6.27;;;;;;;3.45;100.00;100404.06;1753713;81;21168;-69
2021/01/06 09:57:37;;;;;;;14.43;5.63;;;;;;;3.52;100.00;100398.61;1715081;82;21050;-72
2021/01/06 10:00:17;;;;;;;12.33;4.23;;;;;;;3.58;100.00;100394.98;1672733;83;21038;-75
2021/01/06 10:02:51;;;;;;;11.30;5.67;;;;;;;3.69;100.00;100400.85;1885187;75;26751;-69
2021/01/06 10:05:53;;;;;;;9.70;4.33;;;;;;;3.66;100.00;100395.73;1838431;77;21000;-69
2021/01/06 10:08:46;;;;;;;9.13;4.03;;;;;;;3.69;100.00;100400.85;1829006;77;22560;-71
2021/01/06 10:11:25;;;;;;;;;;;;;;;3.71;100.00;100398.91;1835403;77;21163;-69
2021/01/06 10:14:34;;;;;;;7.80;4.10;;;;;;;3.75;100.00;100398.19;1850932;77;20282;-67
2021/01/06 10:17:13;;;;;;;12.90;5.40;;;;;;;3.79;100.00;100399.67;1840891;77;20925;-66
2021/01/06 10:20:07;;;;;;;12.53;4.30;;;;;;;3.85;100.00;100389.81;1735583;82;21015;-69
2021/01/06 10:22:59;;;;;;;10.75;5.08;;;;;;;3.90;100.00;100398.34;1730054;83;22362;-66
2021/01/06 10:26:12;;;;;;;9.77;4.83;;;;;;;4.01;100.00;100396.16;1850202;76;26575;-68
2021/01/06 10:28:46;;;;;;;4.40;2.87;;;;;;;4.01;100.00;100408.70;1832002;77;21021;-68
2021/01/06 10:31:19;;;;;;;8.57;3.47;;;;;;;4.02;100.00;100397.88;1776386;80;22282;-71
2021/01/06 10:34:04;;;;;;;8.57;4.17;;;;;;;4.06;100.00;100402.50;1776121;80;21124;-67
2021/01/06 10:37:08;;;;;;;4.50;3.30;;;;;;;4.08;100.00;100396.05;1776453;80;21025;-68
2021/01/06 10:39:55;;;;;;;9.63;5.00;;;;;;;4.16;100.00;100400.78;1844934;76;27069;-67
2021/01/06 10:42:35;;;;;;;11.00;4.60;;;;;;;4.14;100.00;100398.25;1815014;79;21019;-70
2021/01/06 10:45:09;;;;;;;13.90;4.70;;;;;;;4.17;100.00;100397.15;1815184;78;21188;-69
2021/01/06 10:47:44;;;;;;;8.53;4.40;;;;;;;4.19;100.00;100384.48;1815074;79;20992;-71
2021/01/06 10:50:28;;;;;;;12.33;5.83;;;;;;;4.21;100.00;100391.06;1815299;79;21434;-69
2021/01/06 10:53:25;;;;;;;23.37;7.90;;;;;;;4.24;100.00;100391.67;1814718;79;20945;-69
2021/01/06 10:56:06;;;;;;;10.80;6.07;;;;;;;4.27;100.00;100383.91;1810450;79;20988;-70
2021/01/06 10:58:45;;;;;;;18.40;7.40;;;;;;;4.28;100.00;100394.46;1812802;79;22280;-68
2021/01/06 11:01:28;;;;;;;13.40;5.53;;;;;;;4.33;100.00;100399.46;1802851;77;20952;-69
2021/01/06 11:04:24;;;;;;;17.70;7.30;;;;;;;4.35;100.00;100395.67;1735725;82;20996;-68
2021/01/06 11:07:19;;;;;;;20.47;7.93;;;;;;;4.38;100.00;100392.77;1761709;81;20997;-69
2021/01/06 11:10:10;;;;;;;16.60;7.07;;;;;;;4.42;100.00;100392.52;1623307;87;21268;-67
2021/01/06 11:12:59;;;;;;;12.43;5.60;;;;;;;4.45;100.00;100400.32;1652958;85;21217;-70
2021/01/06 11:15:52;;;;;;;13.37;6.07;;;;;;;4.50;100.00;100395.45;1641153;85;21223;-69
2021/01/06 11:18:31;;;;;;;11.05;4.85;;;;;;;4.54;100.00;100386.18;1643529;86;21702;-66
2021/01/06 11:21:22;;;;;;;7.57;3.83;;;;;;;4.59;100.00;100387.16;1614169;87;21179;-67
2021/01/06 11:23:59;;;;;;;18.62;7.30;;;;;;;4.69;100.00;100378.72;1817801;76;27838;-67
2021/01/06 11:26:41;;;;;;;13.23;5.10;;;;;;;4.70;100.00;100386.63;1804572;79;21000;-70
2021/01/06 11:29:20;;;;;;;11.03;4.33;;;;;;;4.75;100.00;100388.45;1807154;78;21136;-68
2021/01/06 11:32:08;;;;;;;9.67;3.80;;;;;;;4.78;100.00;100391.85;1786782;79;20956;-68
2021/01/06 11:34:38;;;;;;;7.50;4.17;;;;;;;4.80;100.00;100391.23;1798544;79;20990;-70
2021/01/06 11:37:33;;;;;;;13.00;5.80;;;;;;;4.80;100.00;100394.79;1649303;85;21065;-71
2021/01/06 11:40:01;;;;;;;5.33;3.87;;;;;;;4.81;100.00;100403.17;1671023;84;21048;-70
2021/01/06 11:43:04;;;;;;;15.47;5.90;;;;;;;4.84;100.00;100402.09;1691471;84;21365;-68
2021/01/06 11:45:47;;;;;;;9.18;3.95;;;;;;;4.85;100.00;100405.98;1679228;84;21083;-68
2021/01/06 11:48:36;;;;;;;11.70;4.58;;;;;;;4.82;100.00;100402.70;1691938;84;20968;-68
2021/01/06 11:51:24;;;;;;;7.37;3.77;;;;;;;4.82;100.00;100402.21;1683993;84;21704;-67
2021/01/06 11:54:22;;;;;;;7.10;3.57;;;;;;;4.85;100.00;100408.66;1681474;84;21048;-67
2021/01/06 11:57:42;;;;;;;10.80;5.07;;;;;;;4.87;100.00;100412.53;1680477;84;21408;-70
2021/01/06 12:00:40;;;;;;;9.83;5.10;;;;;;;4.91;100.00;100403.28;1643624;87;21043;-71
2021/01/06 12:03:59;;;;;;;9.53;4.93;;;;;;;4.98;100.00;100403.14;1846991;76;26724;-69
2021/01/06 12:06:44;;;;;;;6.83;3.80;;;;;;;4.93;100.00;100420.09;1751625;82;20895;-68
2021/01/06 12:10:09;;;;;;;9.50;4.57;;;;;;;4.91;100.00;100417.53;1754953;81;21293;-67
2021/01/06 12:13:03;;;;;;;7.37;4.28;;;;;;;4.91;100.00;100414.01;1747353;81;23276;-66
2021/01/06 12:15:55;;;;;;;11.97;5.17;;;;;;;4.95;100.00;100414.11;1748848;81;21017;-67
2021/01/06 12:18:44;;;;;;;13.83;5.37;;;;;;;4.99;100.00;100414.20;1745944;81;21024;-68
2021/01/06 12:21:20;;;;;;;9.47;4.20;;;;;;;5.02;100.00;100415.30;1762832;81;20942;-71
2021/01/06 12:23:57;;;;;;;13.33;5.17;;;;;;;5.04;100.00;100409.82;1851833;76;26891;-71
2021/01/06 12:26:42;;;;;;;7.80;3.93;;;;;;;5.02;100.00;100422.50;1772580;79;21085;-68
2021/01/06 12:29:13;;;;;;;14.17;4.77;;;;;;;5.02;100.00;100415.30;1821585;78;21197;-70